Airfield :
LOGIN :

Register | Disclaimer

   EN    FR    IT 

 










Legend :    VFR   Marginal VFR   IFR   Intensive IFR   Very Intensive IFR
Visi :
Ceiling :
>= 8 km
>= 3000ft
5 to 8 km
1000 to 3000 ft
1500m to 5 km
500 to 1000 ft
800 to 1500m
200 to 500 ft
< 800m
< 200 ft
Symbols :   Thunderstorms  Fog  Heavy snow  Heavy precipitations  Wind > 20 kt
SIGMETs :     Misc.  Thunderstorms  Icing  Turbulence  Mountain Waves  Volcanic Ashes







- Airport Elevation : 26 ft
- IATA code : GLA
- Download approach charts


EGPF - Glasgow

CURRENT METAR :
  • 192050Z AUTO 22022G32KT 9999 SCT041 10/05 Q1001

EXPIRED METARs :
  • 192020Z AUTO 23017G27KT 9999 //////TCU 10/05 Q1001
  • 191950Z AUTO 23023G33KT 9999 NCD 10/05 Q1001
  • 191920Z AUTO 22022KT 9999 SCT042 10/05 Q1000
  • 191850Z AUTO 22024KT 9999 BKN038 10/05 Q1000
  • 191820Z AUTO 23022KT 9999 BKN041/// //////CB 10/05 Q0999

TAF TAF EGPF
Valid from the 19 at 18:00 until the 20 at 18:00 UTC


191702Z 1918/2018 23025G38KT 9999 SCT040
BECMG 1918/1921 24018G28KT
PROB40
TEMPO 1918/2006 6000 SHRA
BECMG 2009/2012 22008KT
ATIS : +44 141 887 7449
No reported NOTAMs for that airfield.
4 SIGMETs reported for the Scottish FIR (EGPX) :
 
Severe turbulence
EGPX SIGMET 14 VALID 192100/200100 EGRR
EGPX SCOTTISH FIR SEV TURB FCST SE OF LINE N5912 W01000 - N6100 W00232 SFC/FL060 STNR NC=
Severe mountain waves
EGPX SIGMET 13 VALID 192100/200100 EGRR
EGPX SCOTTISH FIR SEV MTW FCST WI N5500 W00530 - N5355 W00530 - N5546 W00718 - N5801 W00339 - N5805 W00103 - N5500 E00020 - N5500 W00530 FL030/250 STNR NC=
Severe mountain waves
EGPX SIGMET 12 VALID 191700/192100 EGRR
EGPX SCOTTISH FIR SEV MTW FCST WI N5500 W00100 - N5500 W00530 - N5355 W00530 - N5442 W00919 - N5828 W00436 - N5848 W00050 - N5500 E00020 - N5500 W00100 FL030/250 STNR NC=
Severe turbulence
EGPX SIGMET 11 VALID 191700/192100 EGRR
EGPX SCOTTISH FIR SEV TURB FCST SE OF LINE N5851 W01000 - N6100 W00026 SFC/FL060 MOV N 10KT WKN=



MET'MAP, your aeronautical weather chart ! - Copyright ORBIFLY December 2007 - Disclaimer

ORBIFLY MET'MAP TEAM :

Programming & Development : Alexandra Zaïnal
Concept & Development : Baudouin d'Aumeries
Co-Development & Prog : Marc-Olivier Méhu
Technical & hardware support : Manuel Goepfert

Contact : metmap@orbifly.com




SOURCES & CREDITS :

   NOAA